sensor_id;sensor_type;location;lat;lon;timestamp;P1;durP1;ratioP1;P2;durP2;ratioP2
23634;SDS011;11994;51.038;16.974;2022-12-10T00:01:36;93.78;;;54.00;;
23634;SDS011;11994;51.038;16.974;2022-12-10T00:04:03;93.42;;;55.05;;
23634;SDS011;11994;51.038;16.974;2022-12-10T00:06:31;92.37;;;52.25;;
23634;SDS011;11994;51.038;16.974;2022-12-10T00:08:59;89.70;;;53.02;;
23634;SDS011;11994;51.038;16.974;2022-12-10T00:11:26;88.35;;;52.67;;
23634;SDS011;11994;51.038;16.974;2022-12-10T00:13:53;95.07;;;53.10;;
23634;SDS011;11994;51.038;16.974;2022-12-10T00:16:21;90.92;;;53.60;;
23634;SDS011;11994;51.038;16.974;2022-12-10T00:18:50;96.12;;;55.25;;
23634;SDS011;11994;51.038;16.974;2022-12-10T00:21:18;97.40;;;53.98;;
23634;SDS011;11994;51.038;16.974;2022-12-10T00:23:50;96.05;;;55.03;;
23634;SDS011;11994;51.038;16.974;2022-12-10T00:26:17;101.25;;;54.75;;
23634;SDS011;11994;51.038;16.974;2022-12-10T00:28:47;96.40;;;52.03;;
23634;SDS011;11994;51.038;16.974;2022-12-10T00:31:19;87.45;;;51.37;;
23634;SDS011;11994;51.038;16.974;2022-12-10T00:33:48;94.97;;;52.58;;
23634;SDS011;11994;51.038;16.974;2022-12-10T00:36:15;96.25;;;52.65;;
23634;SDS011;11994;51.038;16.974;2022-12-10T00:38:47;97.82;;;53.17;;
23634;SDS011;11994;51.038;16.974;2022-12-10T00:41:14;93.10;;;52.50;;
23634;SDS011;11994;51.038;16.974;2022-12-10T00:43:41;95.85;;;52.40;;
23634;SDS011;11994;51.038;16.974;2022-12-10T00:46:08;92.50;;;51.18;;
23634;SDS011;11994;51.038;16.974;2022-12-10T00:48:34;89.42;;;48.60;;
23634;SDS011;11994;51.038;16.974;2022-12-10T00:51:06;90.20;;;48.68;;
23634;SDS011;11994;51.038;16.974;2022-12-10T00:53:32;93.78;;;48.63;;
23634;SDS011;11994;51.038;16.974;2022-12-10T00:55:59;91.25;;;50.30;;
23634;SDS011;11994;51.038;16.974;2022-12-10T00:58:26;93.05;;;49.42;;
23634;SDS011;11994;51.038;16.974;2022-12-10T01:00:54;91.02;;;50.65;;
23634;SDS011;11994;51.038;16.974;2022-12-10T01:03:43;87.80;;;47.60;;
23634;SDS011;11994;51.038;16.974;2022-12-10T01:06:16;88.17;;;48.78;;
23634;SDS011;11994;51.038;16.974;2022-12-10T01:08:43;84.13;;;47.27;;
23634;SDS011;11994;51.038;16.974;2022-12-10T01:11:10;88.42;;;48.15;;
23634;SDS011;11994;51.038;16.974;2022-12-10T01:13:38;91.92;;;47.98;;
23634;SDS011;11994;51.038;16.974;2022-12-10T01:16:05;92.45;;;50.30;;
23634;SDS011;11994;51.038;16.974;2022-12-10T01:18:34;92.65;;;49.30;;
23634;SDS011;11994;51.038;16.974;2022-12-10T01:21:02;89.77;;;47.62;;
23634;SDS011;11994;51.038;16.974;2022-12-10T01:23:33;89.60;;;47.88;;
23634;SDS011;11994;51.038;16.974;2022-12-10T01:26:01;91.80;;;48.50;;
23634;SDS011;11994;51.038;16.974;2022-12-10T01:28:33;85.17;;;46.83;;
23634;SDS011;11994;51.038;16.974;2022-12-10T01:31:07;90.12;;;47.78;;
23634;SDS011;11994;51.038;16.974;2022-12-10T01:33:32;91.85;;;49.33;;
23634;SDS011;11994;51.038;16.974;2022-12-10T01:36:06;86.53;;;47.38;;
23634;SDS011;11994;51.038;16.974;2022-12-10T01:38:37;87.50;;;45.35;;
23634;SDS011;11994;51.038;16.974;2022-12-10T01:41:04;86.47;;;44.00;;
23634;SDS011;11994;51.038;16.974;2022-12-10T01:46:29;84.50;;;45.90;;
23634;SDS011;11994;51.038;16.974;2022-12-10T01:48:56;85.28;;;46.02;;
23634;SDS011;11994;51.038;16.974;2022-12-10T01:51:24;88.42;;;45.90;;
23634;SDS011;11994;51.038;16.974;2022-12-10T01:53:53;81.55;;;44.83;;
23634;SDS011;11994;51.038;16.974;2022-12-10T01:56:20;90.05;;;44.58;;
23634;SDS011;11994;51.038;16.974;2022-12-10T01:58:47;87.10;;;45.03;;
23634;SDS011;11994;51.038;16.974;2022-12-10T02:01:22;82.90;;;44.20;;
23634;SDS011;11994;51.038;16.974;2022-12-10T02:07:10;89.10;;;47.15;;
23634;SDS011;11994;51.038;16.974;2022-12-10T02:09:45;84.45;;;45.88;;
23634;SDS011;11994;51.038;16.974;2022-12-10T02:15:10;87.05;;;44.03;;
23634;SDS011;11994;51.038;16.974;2022-12-10T02:17:45;81.20;;;41.90;;
23634;SDS011;11994;51.038;16.974;2022-12-10T02:20:19;84.75;;;42.73;;
23634;SDS011;11994;51.038;16.974;2022-12-10T02:22:58;82.53;;;44.58;;
23634;SDS011;11994;51.038;16.974;2022-12-10T02:25:37;78.47;;;41.80;;
23634;SDS011;11994;51.038;16.974;2022-12-10T02:31:05;89.03;;;45.73;;
23634;SDS011;11994;51.038;16.974;2022-12-10T02:33:35;86.75;;;43.38;;
23634;SDS011;11994;51.038;16.974;2022-12-10T02:36:05;86.90;;;42.48;;
23634;SDS011;11994;51.038;16.974;2022-12-10T02:38:34;77.70;;;41.10;;
23634;SDS011;11994;51.038;16.974;2022-12-10T02:41:04;84.30;;;43.60;;
23634;SDS011;11994;51.038;16.974;2022-12-10T02:43:37;84.35;;;44.85;;
23634;SDS011;11994;51.038;16.974;2022-12-10T02:46:03;88.90;;;45.98;;
23634;SDS011;11994;51.038;16.974;2022-12-10T02:48:31;87.30;;;44.83;;
23634;SDS011;11994;51.038;16.974;2022-12-10T02:50:59;87.40;;;45.03;;
23634;SDS011;11994;51.038;16.974;2022-12-10T02:53:25;85.45;;;43.48;;
23634;SDS011;11994;51.038;16.974;2022-12-10T03:04:45;90.92;;;45.78;;
23634;SDS011;11994;51.038;16.974;2022-12-10T03:07:33;85.35;;;44.08;;
23634;SDS011;11994;51.038;16.974;2022-12-10T03:10:34;88.62;;;44.88;;
23634;SDS011;11994;51.038;16.974;2022-12-10T03:13:06;90.28;;;44.88;;
23634;SDS011;11994;51.038;16.974;2022-12-10T03:15:36;84.77;;;43.90;;
23634;SDS011;11994;51.038;16.974;2022-12-10T03:18:06;79.20;;;44.10;;
23634;SDS011;11994;51.038;16.974;2022-12-10T03:20:37;80.40;;;43.58;;
23634;SDS011;11994;51.038;16.974;2022-12-10T03:23:05;83.67;;;44.65;;
23634;SDS011;11994;51.038;16.974;2022-12-10T03:25:36;86.67;;;44.77;;
23634;SDS011;11994;51.038;16.974;2022-12-10T03:28:04;87.67;;;45.90;;
23634;SDS011;11994;51.038;16.974;2022-12-10T03:30:32;90.45;;;46.37;;
23634;SDS011;11994;51.038;16.974;2022-12-10T03:32:59;94.83;;;45.73;;
23634;SDS011;11994;51.038;16.974;2022-12-10T03:35:26;86.47;;;43.48;;
23634;SDS011;11994;51.038;16.974;2022-12-10T03:37:52;84.03;;;44.75;;
23634;SDS011;11994;51.038;16.974;2022-12-10T03:40:20;82.82;;;43.38;;
23634;SDS011;11994;51.038;16.974;2022-12-10T03:42:48;85.10;;;42.95;;
23634;SDS011;11994;51.038;16.974;2022-12-10T03:45:14;80.93;;;41.97;;
23634;SDS011;11994;51.038;16.974;2022-12-10T03:47:40;86.73;;;44.43;;
23634;SDS011;11994;51.038;16.974;2022-12-10T03:50:07;89.85;;;45.98;;
23634;SDS011;11994;51.038;16.974;2022-12-10T03:52:34;89.37;;;43.42;;
23634;SDS011;11994;51.038;16.974;2022-12-10T03:55:00;76.55;;;40.43;;
23634;SDS011;11994;51.038;16.974;2022-12-10T03:57:26;83.42;;;42.43;;
23634;SDS011;11994;51.038;16.974;2022-12-10T03:59:52;83.17;;;41.43;;
23634;SDS011;11994;51.038;16.974;2022-12-10T04:02:18;79.37;;;42.20;;
23634;SDS011;11994;51.038;16.974;2022-12-10T04:04:44;77.40;;;42.70;;
23634;SDS011;11994;51.038;16.974;2022-12-10T04:07:10;85.65;;;42.40;;
23634;SDS011;11994;51.038;16.974;2022-12-10T04:09:36;82.82;;;43.50;;
23634;SDS011;11994;51.038;16.974;2022-12-10T04:12:02;80.97;;;42.50;;
23634;SDS011;11994;51.038;16.974;2022-12-10T04:14:29;79.37;;;40.60;;
23634;SDS011;11994;51.038;16.974;2022-12-10T04:17:13;76.85;;;41.90;;
23634;SDS011;11994;51.038;16.974;2022-12-10T04:19:39;72.10;;;39.75;;
23634;SDS011;11994;51.038;16.974;2022-12-10T04:22:05;78.67;;;41.77;;
23634;SDS011;11994;51.038;16.974;2022-12-10T04:24:49;78.67;;;42.25;;
23634;SDS011;11994;51.038;16.974;2022-12-10T04:27:33;77.87;;;40.30;;
23634;SDS011;11994;51.038;16.974;2022-12-10T04:30:05;74.00;;;39.48;;
23634;SDS011;11994;51.038;16.974;2022-12-10T04:32:34;68.20;;;36.50;;
23634;SDS011;11994;51.038;16.974;2022-12-10T04:34:59;64.30;;;35.13;;
23634;SDS011;11994;51.038;16.974;2022-12-10T04:37:26;65.90;;;36.20;;
23634;SDS011;11994;51.038;16.974;2022-12-10T04:39:52;65.52;;;37.65;;
23634;SDS011;11994;51.038;16.974;2022-12-10T04:42:19;65.80;;;36.88;;
23634;SDS011;11994;51.038;16.974;2022-12-10T04:44:46;67.87;;;36.55;;
23634;SDS011;11994;51.038;16.974;2022-12-10T04:47:12;68.22;;;37.95;;
23634;SDS011;11994;51.038;16.974;2022-12-10T04:49:38;67.60;;;38.30;;
23634;SDS011;11994;51.038;16.974;2022-12-10T04:52:06;69.20;;;38.60;;
23634;SDS011;11994;51.038;16.974;2022-12-10T04:54:35;66.37;;;37.37;;
23634;SDS011;11994;51.038;16.974;2022-12-10T04:57:01;60.95;;;34.88;;
23634;SDS011;11994;51.038;16.974;2022-12-10T04:59:27;59.48;;;33.42;;
23634;SDS011;11994;51.038;16.974;2022-12-10T05:01:53;62.73;;;34.17;;
23634;SDS011;11994;51.038;16.974;2022-12-10T05:04:19;59.43;;;35.83;;
23634;SDS011;11994;51.038;16.974;2022-12-10T05:06:46;65.15;;;37.35;;
23634;SDS011;11994;51.038;16.974;2022-12-10T05:09:14;69.27;;;37.90;;
23634;SDS011;11994;51.038;16.974;2022-12-10T05:11:42;65.92;;;37.63;;
23634;SDS011;11994;51.038;16.974;2022-12-10T05:14:13;61.80;;;35.65;;
23634;SDS011;11994;51.038;16.974;2022-12-10T05:16:40;62.95;;;35.75;;
23634;SDS011;11994;51.038;16.974;2022-12-10T05:19:08;62.80;;;35.92;;
23634;SDS011;11994;51.038;16.974;2022-12-10T05:21:35;59.93;;;36.23;;
23634;SDS011;11994;51.038;16.974;2022-12-10T05:24:20;64.75;;;36.65;;
23634;SDS011;11994;51.038;16.974;2022-12-10T05:26:46;61.47;;;36.93;;
23634;SDS011;11994;51.038;16.974;2022-12-10T05:29:14;61.35;;;36.42;;
23634;SDS011;11994;51.038;16.974;2022-12-10T05:31:39;63.60;;;36.40;;
23634;SDS011;11994;51.038;16.974;2022-12-10T05:34:05;59.83;;;36.30;;
23634;SDS011;11994;51.038;16.974;2022-12-10T05:36:33;61.55;;;35.60;;
23634;SDS011;11994;51.038;16.974;2022-12-10T05:38:59;63.53;;;35.93;;
23634;SDS011;11994;51.038;16.974;2022-12-10T05:41:26;62.93;;;36.48;;
23634;SDS011;11994;51.038;16.974;2022-12-10T05:43:55;60.93;;;36.33;;
23634;SDS011;11994;51.038;16.974;2022-12-10T05:46:24;61.77;;;36.00;;
23634;SDS011;11994;51.038;16.974;2022-12-10T05:48:56;62.27;;;36.23;;
23634;SDS011;11994;51.038;16.974;2022-12-10T05:51:23;62.65;;;37.90;;
23634;SDS011;11994;51.038;16.974;2022-12-10T05:53:52;65.10;;;36.30;;
23634;SDS011;11994;51.038;16.974;2022-12-10T05:56:20;55.98;;;33.95;;
23634;SDS011;11994;51.038;16.974;2022-12-10T05:58:49;59.25;;;35.43;;
23634;SDS011;11994;51.038;16.974;2022-12-10T06:01:21;57.60;;;34.40;;
23634;SDS011;11994;51.038;16.974;2022-12-10T06:03:50;60.95;;;36.15;;
23634;SDS011;11994;51.038;16.974;2022-12-10T06:06:25;55.75;;;34.73;;
23634;SDS011;11994;51.038;16.974;2022-12-10T06:08:56;57.20;;;35.43;;
23634;SDS011;11994;51.038;16.974;2022-12-10T06:11:22;58.83;;;34.73;;
23634;SDS011;11994;51.038;16.974;2022-12-10T06:13:51;53.90;;;32.88;;
23634;SDS011;11994;51.038;16.974;2022-12-10T06:16:20;52.10;;;31.42;;
23634;SDS011;11994;51.038;16.974;2022-12-10T06:18:46;52.13;;;32.95;;
23634;SDS011;11994;51.038;16.974;2022-12-10T06:21:13;58.78;;;34.18;;
23634;SDS011;11994;51.038;16.974;2022-12-10T06:23:41;59.15;;;34.78;;
23634;SDS011;11994;51.038;16.974;2022-12-10T06:26:09;57.65;;;34.50;;
23634;SDS011;11994;51.038;16.974;2022-12-10T06:28:39;57.23;;;35.63;;
23634;SDS011;11994;51.038;16.974;2022-12-10T06:31:06;57.08;;;32.88;;
23634;SDS011;11994;51.038;16.974;2022-12-10T06:33:32;55.40;;;34.48;;
23634;SDS011;11994;51.038;16.974;2022-12-10T06:35:58;54.13;;;32.88;;
23634;SDS011;11994;51.038;16.974;2022-12-10T06:38:24;55.03;;;33.78;;
23634;SDS011;11994;51.038;16.974;2022-12-10T06:40:50;55.65;;;34.27;;
23634;SDS011;11994;51.038;16.974;2022-12-10T06:43:16;59.90;;;36.80;;
23634;SDS011;11994;51.038;16.974;2022-12-10T06:45:42;55.03;;;34.67;;
23634;SDS011;11994;51.038;16.974;2022-12-10T06:48:08;59.38;;;36.98;;
23634;SDS011;11994;51.038;16.974;2022-12-10T06:50:35;58.98;;;36.98;;
23634;SDS011;11994;51.038;16.974;2022-12-10T06:53:02;57.98;;;35.52;;
23634;SDS011;11994;51.038;16.974;2022-12-10T06:55:28;54.48;;;31.93;;
23634;SDS011;11994;51.038;16.974;2022-12-10T06:57:55;53.48;;;33.67;;
23634;SDS011;11994;51.038;16.974;2022-12-10T07:00:21;53.90;;;34.95;;
23634;SDS011;11994;51.038;16.974;2022-12-10T07:02:47;53.60;;;34.55;;
23634;SDS011;11994;51.038;16.974;2022-12-10T07:05:14;56.65;;;36.42;;
23634;SDS011;11994;51.038;16.974;2022-12-10T07:07:40;59.83;;;37.75;;
23634;SDS011;11994;51.038;16.974;2022-12-10T07:10:07;62.73;;;36.75;;
23634;SDS011;11994;51.038;16.974;2022-12-10T07:12:34;55.05;;;34.67;;
23634;SDS011;11994;51.038;16.974;2022-12-10T07:15:00;51.70;;;34.83;;
23634;SDS011;11994;51.038;16.974;2022-12-10T07:17:25;56.10;;;35.77;;
23634;SDS011;11994;51.038;16.974;2022-12-10T07:19:51;54.60;;;36.13;;
23634;SDS011;11994;51.038;16.974;2022-12-10T07:22:17;60.50;;;37.80;;
23634;SDS011;11994;51.038;16.974;2022-12-10T07:24:43;56.37;;;36.73;;
23634;SDS011;11994;51.038;16.974;2022-12-10T07:27:09;55.73;;;36.20;;
23634;SDS011;11994;51.038;16.974;2022-12-10T07:29:35;55.37;;;35.37;;
23634;SDS011;11994;51.038;16.974;2022-12-10T07:32:01;53.23;;;34.18;;
23634;SDS011;11994;51.038;16.974;2022-12-10T07:34:27;51.37;;;33.80;;
23634;SDS011;11994;51.038;16.974;2022-12-10T07:36:53;55.85;;;35.03;;
23634;SDS011;11994;51.038;16.974;2022-12-10T07:39:20;55.75;;;35.17;;
23634;SDS011;11994;51.038;16.974;2022-12-10T07:41:49;55.20;;;36.30;;
23634;SDS011;11994;51.038;16.974;2022-12-10T07:44:24;57.58;;;35.30;;
23634;SDS011;11994;51.038;16.974;2022-12-10T07:46:50;55.80;;;35.33;;
23634;SDS011;11994;51.038;16.974;2022-12-10T07:49:17;55.52;;;35.50;;
23634;SDS011;11994;51.038;16.974;2022-12-10T07:51:44;51.28;;;33.85;;
23634;SDS011;11994;51.038;16.974;2022-12-10T07:54:14;52.55;;;33.40;;
23634;SDS011;11994;51.038;16.974;2022-12-10T07:56:40;54.55;;;34.23;;
23634;SDS011;11994;51.038;16.974;2022-12-10T07:59:07;54.35;;;36.28;;
23634;SDS011;11994;51.038;16.974;2022-12-10T08:01:33;55.00;;;35.08;;
23634;SDS011;11994;51.038;16.974;2022-12-10T08:03:59;54.18;;;35.95;;
23634;SDS011;11994;51.038;16.974;2022-12-10T08:06:26;56.63;;;36.27;;
23634;SDS011;11994;51.038;16.974;2022-12-10T08:08:53;61.30;;;36.30;;
23634;SDS011;11994;51.038;16.974;2022-12-10T08:11:20;55.88;;;34.78;;
23634;SDS011;11994;51.038;16.974;2022-12-10T08:13:47;55.28;;;35.15;;
23634;SDS011;11994;51.038;16.974;2022-12-10T08:16:14;56.92;;;36.17;;
23634;SDS011;11994;51.038;16.974;2022-12-10T08:18:47;55.70;;;36.58;;
23634;SDS011;11994;51.038;16.974;2022-12-10T08:21:17;57.30;;;36.20;;
23634;SDS011;11994;51.038;16.974;2022-12-10T08:23:46;58.95;;;37.33;;
23634;SDS011;11994;51.038;16.974;2022-12-10T08:26:13;59.67;;;37.90;;
23634;SDS011;11994;51.038;16.974;2022-12-10T08:28:43;60.35;;;36.28;;
23634;SDS011;11994;51.038;16.974;2022-12-10T08:31:10;56.00;;;35.63;;
23634;SDS011;11994;51.038;16.974;2022-12-10T08:33:39;58.85;;;35.75;;
23634;SDS011;11994;51.038;16.974;2022-12-10T08:36:06;56.48;;;37.75;;
23634;SDS011;11994;51.038;16.974;2022-12-10T08:38:35;59.17;;;38.57;;
23634;SDS011;11994;51.038;16.974;2022-12-10T08:41:05;59.53;;;37.90;;
23634;SDS011;11994;51.038;16.974;2022-12-10T08:43:33;60.88;;;38.10;;
23634;SDS011;11994;51.038;16.974;2022-12-10T08:46:00;60.45;;;38.70;;
23634;SDS011;11994;51.038;16.974;2022-12-10T08:48:26;57.58;;;35.90;;
23634;SDS011;11994;51.038;16.974;2022-12-10T08:50:52;55.85;;;35.90;;
23634;SDS011;11994;51.038;16.974;2022-12-10T08:53:18;55.97;;;35.43;;
23634;SDS011;11994;51.038;16.974;2022-12-10T08:55:44;58.02;;;36.33;;
23634;SDS011;11994;51.038;16.974;2022-12-10T08:58:09;57.03;;;36.37;;
23634;SDS011;11994;51.038;16.974;2022-12-10T09:00:36;52.35;;;33.83;;
23634;SDS011;11994;51.038;16.974;2022-12-10T09:03:02;58.65;;;36.08;;
23634;SDS011;11994;51.038;16.974;2022-12-10T09:05:28;59.65;;;35.78;;
23634;SDS011;11994;51.038;16.974;2022-12-10T09:07:55;59.48;;;37.00;;
23634;SDS011;11994;51.038;16.974;2022-12-10T09:10:21;56.40;;;35.90;;
23634;SDS011;11994;51.038;16.974;2022-12-10T09:12:47;54.03;;;35.03;;
23634;SDS011;11994;51.038;16.974;2022-12-10T09:15:13;52.45;;;34.33;;
23634;SDS011;11994;51.038;16.974;2022-12-10T09:17:39;57.23;;;37.08;;
23634;SDS011;11994;51.038;16.974;2022-12-10T09:20:05;55.93;;;36.30;;
23634;SDS011;11994;51.038;16.974;2022-12-10T09:22:31;56.15;;;36.93;;
23634;SDS011;11994;51.038;16.974;2022-12-10T09:24:57;57.75;;;38.00;;
23634;SDS011;11994;51.038;16.974;2022-12-10T09:27:23;57.60;;;37.77;;
23634;SDS011;11994;51.038;16.974;2022-12-10T09:29:50;54.13;;;35.28;;
23634;SDS011;11994;51.038;16.974;2022-12-10T09:32:16;56.28;;;35.48;;
23634;SDS011;11994;51.038;16.974;2022-12-10T09:34:42;55.30;;;35.53;;
23634;SDS011;11994;51.038;16.974;2022-12-10T09:37:07;53.73;;;35.95;;
23634;SDS011;11994;51.038;16.974;2022-12-10T09:39:33;59.45;;;37.28;;
23634;SDS011;11994;51.038;16.974;2022-12-10T09:42:09;58.20;;;37.97;;
23634;SDS011;11994;51.038;16.974;2022-12-10T09:45:03;57.25;;;36.48;;
23634;SDS011;11994;51.038;16.974;2022-12-10T09:47:44;56.75;;;36.85;;
23634;SDS011;11994;51.038;16.974;2022-12-10T09:53:16;55.67;;;36.68;;
23634;SDS011;11994;51.038;16.974;2022-12-10T09:55:45;59.58;;;37.50;;
23634;SDS011;11994;51.038;16.974;2022-12-10T09:58:21;59.83;;;36.98;;
23634;SDS011;11994;51.038;16.974;2022-12-10T10:00:48;61.60;;;39.27;;
23634;SDS011;11994;51.038;16.974;2022-12-10T10:03:21;56.68;;;38.10;;
23634;SDS011;11994;51.038;16.974;2022-12-10T10:05:48;60.12;;;38.92;;
23634;SDS011;11994;51.038;16.974;2022-12-10T10:08:32;59.18;;;36.98;;
23634;SDS011;11994;51.038;16.974;2022-12-10T10:11:05;60.78;;;37.42;;
23634;SDS011;11994;51.038;16.974;2022-12-10T10:16:20;53.25;;;36.10;;
23634;SDS011;11994;51.038;16.974;2022-12-10T10:19:04;54.48;;;36.15;;
23634;SDS011;11994;51.038;16.974;2022-12-10T10:21:41;53.80;;;36.58;;
23634;SDS011;11994;51.038;16.974;2022-12-10T10:24:14;53.20;;;36.65;;
23634;SDS011;11994;51.038;16.974;2022-12-10T10:26:43;56.65;;;37.60;;
23634;SDS011;11994;51.038;16.974;2022-12-10T10:29:13;59.23;;;36.35;;
23634;SDS011;11994;51.038;16.974;2022-12-10T10:31:42;53.83;;;34.88;;
23634;SDS011;11994;51.038;16.974;2022-12-10T10:34:19;54.58;;;34.65;;
23634;SDS011;11994;51.038;16.974;2022-12-10T10:36:47;48.68;;;33.33;;
23634;SDS011;11994;51.038;16.974;2022-12-10T10:41:56;56.18;;;36.05;;
23634;SDS011;11994;51.038;16.974;2022-12-10T10:44:33;50.80;;;34.90;;
23634;SDS011;11994;51.038;16.974;2022-12-10T10:47:01;52.23;;;35.40;;
23634;SDS011;11994;51.038;16.974;2022-12-10T10:49:32;49.50;;;33.58;;
23634;SDS011;11994;51.038;16.974;2022-12-10T10:52:20;46.10;;;31.80;;
23634;SDS011;11994;51.038;16.974;2022-12-10T10:57:29;49.18;;;33.20;;
23634;SDS011;11994;51.038;16.974;2022-12-10T10:59:55;52.08;;;35.00;;
23634;SDS011;11994;51.038;16.974;2022-12-10T11:02:35;57.15;;;36.77;;
23634;SDS011;11994;51.038;16.974;2022-12-10T11:05:04;56.08;;;36.40;;
23634;SDS011;11994;51.038;16.974;2022-12-10T11:07:59;55.33;;;35.48;;
23634;SDS011;11994;51.038;16.974;2022-12-10T11:13:31;51.48;;;33.70;;
23634;SDS011;11994;51.038;16.974;2022-12-10T11:21:30;49.60;;;32.95;;
23634;SDS011;11994;51.038;16.974;2022-12-10T11:23:59;53.33;;;34.95;;
23634;SDS011;11994;51.038;16.974;2022-12-10T11:37:39;50.95;;;33.58;;
23634;SDS011;11994;51.038;16.974;2022-12-10T11:40:28;52.55;;;35.17;;
23634;SDS011;11994;51.038;16.974;2022-12-10T11:46:20;50.30;;;33.38;;
23634;SDS011;11994;51.038;16.974;2022-12-10T11:49:14;54.55;;;35.20;;
23634;SDS011;11994;51.038;16.974;2022-12-10T11:51:55;50.78;;;35.25;;
23634;SDS011;11994;51.038;16.974;2022-12-10T11:54:43;52.80;;;35.20;;
23634;SDS011;11994;51.038;16.974;2022-12-10T12:00:05;53.48;;;34.80;;
23634;SDS011;11994;51.038;16.974;2022-12-10T12:08:51;52.93;;;35.55;;
23634;SDS011;11994;51.038;16.974;2022-12-10T12:11:25;54.48;;;37.67;;
23634;SDS011;11994;51.038;16.974;2022-12-10T12:14:00;57.80;;;38.70;;
23634;SDS011;11994;51.038;16.974;2022-12-10T12:16:41;61.33;;;39.05;;
23634;SDS011;11994;51.038;16.974;2022-12-10T12:19:05;57.17;;;38.78;;
23634;SDS011;11994;51.038;16.974;2022-12-10T12:21:42;56.45;;;37.67;;
23634;SDS011;11994;51.038;16.974;2022-12-10T12:24:29;70.05;;;38.45;;
23634;SDS011;11994;51.038;16.974;2022-12-10T12:29:44;53.38;;;35.45;;
23634;SDS011;11994;51.038;16.974;2022-12-10T12:32:19;55.17;;;35.78;;
23634;SDS011;11994;51.038;16.974;2022-12-10T12:34:52;56.45;;;38.80;;
23634;SDS011;11994;51.038;16.974;2022-12-10T12:37:28;55.48;;;38.78;;
23634;SDS011;11994;51.038;16.974;2022-12-10T12:40:19;63.55;;;40.12;;
23634;SDS011;11994;51.038;16.974;2022-12-10T12:43:07;57.98;;;36.73;;
23634;SDS011;11994;51.038;16.974;2022-12-10T12:45:49;54.67;;;36.15;;
23634;SDS011;11994;51.038;16.974;2022-12-10T12:48:25;58.05;;;38.73;;
23634;SDS011;11994;51.038;16.974;2022-12-10T12:54:04;57.15;;;37.67;;
23634;SDS011;11994;51.038;16.974;2022-12-10T12:59:49;61.63;;;38.78;;
23634;SDS011;11994;51.038;16.974;2022-12-10T13:05:16;58.17;;;36.05;;
23634;SDS011;11994;51.038;16.974;2022-12-10T13:20:24;56.95;;;36.25;;
23634;SDS011;11994;51.038;16.974;2022-12-10T13:48:59;59.70;;;39.88;;
23634;SDS011;11994;51.038;16.974;2022-12-10T13:59:57;57.58;;;39.33;;
23634;SDS011;11994;51.038;16.974;2022-12-10T14:08:26;54.48;;;36.60;;
23634;SDS011;11994;51.038;16.974;2022-12-10T14:10:56;54.93;;;37.50;;
23634;SDS011;11994;51.038;16.974;2022-12-10T14:13:35;53.68;;;37.63;;
23634;SDS011;11994;51.038;16.974;2022-12-10T14:16:11;58.45;;;38.67;;
23634;SDS011;11994;51.038;16.974;2022-12-10T14:18:43;57.67;;;38.83;;
23634;SDS011;11994;51.038;16.974;2022-12-10T14:21:14;57.93;;;39.80;;
23634;SDS011;11994;51.038;16.974;2022-12-10T14:23:45;59.88;;;40.25;;
23634;SDS011;11994;51.038;16.974;2022-12-10T14:26:14;60.20;;;40.05;;
23634;SDS011;11994;51.038;16.974;2022-12-10T14:28:49;59.15;;;38.67;;
23634;SDS011;11994;51.038;16.974;2022-12-10T14:31:17;57.73;;;36.83;;
23634;SDS011;11994;51.038;16.974;2022-12-10T14:33:48;57.00;;;38.67;;
23634;SDS011;11994;51.038;16.974;2022-12-10T14:36:20;59.55;;;39.38;;
23634;SDS011;11994;51.038;16.974;2022-12-10T14:38:53;60.83;;;40.28;;
23634;SDS011;11994;51.038;16.974;2022-12-10T14:41:20;61.90;;;41.70;;
23634;SDS011;11994;51.038;16.974;2022-12-10T14:43:48;62.78;;;42.45;;
23634;SDS011;11994;51.038;16.974;2022-12-10T14:46:19;65.95;;;43.35;;
23634;SDS011;11994;51.038;16.974;2022-12-10T14:48:50;63.40;;;42.23;;
23634;SDS011;11994;51.038;16.974;2022-12-10T14:51:21;60.00;;;40.38;;
23634;SDS011;11994;51.038;16.974;2022-12-10T14:53:51;59.40;;;40.83;;
23634;SDS011;11994;51.038;16.974;2022-12-10T14:56:26;62.58;;;40.80;;
23634;SDS011;11994;51.038;16.974;2022-12-10T14:59:04;60.23;;;40.20;;
23634;SDS011;11994;51.038;16.974;2022-12-10T15:01:39;59.55;;;40.55;;
23634;SDS011;11994;51.038;16.974;2022-12-10T15:04:13;59.93;;;40.00;;
23634;SDS011;11994;51.038;16.974;2022-12-10T15:06:42;61.40;;;38.78;;
23634;SDS011;11994;51.038;16.974;2022-12-10T15:09:19;55.25;;;37.60;;
23634;SDS011;11994;51.038;16.974;2022-12-10T15:11:45;58.13;;;38.02;;
23634;SDS011;11994;51.038;16.974;2022-12-10T15:14:21;59.30;;;38.63;;
23634;SDS011;11994;51.038;16.974;2022-12-10T15:16:49;58.90;;;39.78;;
23634;SDS011;11994;51.038;16.974;2022-12-10T15:19:21;64.12;;;40.10;;
23634;SDS011;11994;51.038;16.974;2022-12-10T15:21:58;62.13;;;42.25;;
23634;SDS011;11994;51.038;16.974;2022-12-10T15:24:37;60.52;;;40.23;;
23634;SDS011;11994;51.038;16.974;2022-12-10T15:27:14;65.60;;;40.67;;
23634;SDS011;11994;51.038;16.974;2022-12-10T15:29:49;60.23;;;39.80;;
23634;SDS011;11994;51.038;16.974;2022-12-10T15:32:21;61.37;;;41.15;;
23634;SDS011;11994;51.038;16.974;2022-12-10T15:34:54;64.70;;;42.70;;
23634;SDS011;11994;51.038;16.974;2022-12-10T15:37:24;67.58;;;43.90;;
23634;SDS011;11994;51.038;16.974;2022-12-10T15:39:54;68.15;;;46.02;;
23634;SDS011;11994;51.038;16.974;2022-12-10T15:42:30;70.62;;;46.58;;
23634;SDS011;11994;51.038;16.974;2022-12-10T15:45:02;72.75;;;45.83;;
23634;SDS011;11994;51.038;16.974;2022-12-10T15:47:31;74.45;;;46.20;;
23634;SDS011;11994;51.038;16.974;2022-12-10T15:49:58;71.20;;;44.77;;
23634;SDS011;11994;51.038;16.974;2022-12-10T15:52:25;67.53;;;42.87;;
23634;SDS011;11994;51.038;16.974;2022-12-10T15:54:54;70.28;;;45.15;;
23634;SDS011;11994;51.038;16.974;2022-12-10T15:57:32;71.77;;;46.08;;
23634;SDS011;11994;51.038;16.974;2022-12-10T16:00:07;66.92;;;42.08;;
23634;SDS011;11994;51.038;16.974;2022-12-10T16:05:20;71.05;;;44.77;;
23634;SDS011;11994;51.038;16.974;2022-12-10T16:07:55;74.07;;;43.55;;
23634;SDS011;11994;51.038;16.974;2022-12-10T16:10:29;69.67;;;43.02;;
23634;SDS011;11994;51.038;16.974;2022-12-10T16:13:04;70.95;;;44.67;;
23634;SDS011;11994;51.038;16.974;2022-12-10T16:15:43;69.45;;;44.55;;
23634;SDS011;11994;51.038;16.974;2022-12-10T16:18:17;75.72;;;45.38;;
23634;SDS011;11994;51.038;16.974;2022-12-10T16:20:46;72.70;;;45.90;;
23634;SDS011;11994;51.038;16.974;2022-12-10T16:23:19;74.20;;;46.95;;
23634;SDS011;11994;51.038;16.974;2022-12-10T16:25:45;75.25;;;45.75;;
23634;SDS011;11994;51.038;16.974;2022-12-10T16:28:18;75.67;;;44.58;;
23634;SDS011;11994;51.038;16.974;2022-12-10T16:30:51;72.82;;;43.73;;
23634;SDS011;11994;51.038;16.974;2022-12-10T16:33:16;68.78;;;42.78;;
23634;SDS011;11994;51.038;16.974;2022-12-10T16:35:44;70.37;;;44.58;;
23634;SDS011;11994;51.038;16.974;2022-12-10T16:38:12;70.70;;;44.25;;